Ransom Canyon, Texas
Current Conditions -  °F | °C
As of 10:24 AM on Friday 19 Dec 2014 (Local Time) from KLBB Reporting Station
Haze Haze  
Wind Chill: -1°   Ceiling: 200
Heat Index:   Visibility: 0.75mi
Dew Point:   Wind: 8mph
Humidity: 100%   Direction: 170°S
Pressure: 30.19"   Gusts: NA
Location:  33.53°N, 101.68°W
Report Text: KLBB 191624Z 17007KT 3/4SM R17R/5000VP6000FT BR SCT000 OVC002 03/03 A3019 RMK AO2 BR SCT000 T00280028
Loading
Personal Weather Stations






























Interactive Weather Map New forecast layout! Learn more

10-Day Weather Forecast

Advertisements
Track Severe Weather on mobile